createdAt,value
2023-03-14T00:03:05.821Z,5.53
2023-03-14T00:07:15.704Z,5.73
2023-03-14T00:11:25.296Z,4.93
2023-03-14T00:15:37.371Z,5.20
2023-03-14T00:19:46.686Z,5.30
2023-03-14T00:23:55.823Z,5.50
2023-03-14T00:28:05.228Z,5.47
2023-03-14T00:32:15.768Z,5.90
2023-03-14T00:36:25.189Z,5.93
2023-03-14T00:40:34.345Z,5.10
2023-03-14T00:44:43.482Z,4.47
2023-03-14T00:48:54.034Z,5.03
2023-03-14T00:53:03.509Z,3.93
2023-03-14T00:57:14.184Z,4.00
2023-03-14T01:01:24.081Z,4.40
2023-03-14T01:05:35.178Z,3.97
2023-03-14T01:09:45.768Z,3.93
2023-03-14T01:13:55.378Z,4.27
2023-03-14T01:18:05.260Z,3.90
2023-03-14T01:22:17.799Z,4.30
2023-03-14T01:26:34.612Z,3.53
2023-03-14T01:31:11.807Z,3.53
2023-03-14T01:35:22.083Z,3.63
2023-03-14T01:39:36.042Z,3.43
2023-03-14T01:43:45.437Z,4.03
2023-03-14T01:47:55.331Z,4.13
2023-03-14T01:52:08.848Z,3.63
2023-03-14T01:56:21.149Z,3.23
2023-03-14T02:00:30.335Z,4.20
2023-03-14T02:04:41.467Z,3.50
2023-03-14T02:08:52.153Z,3.80
2023-03-14T02:13:11.614Z,3.87
2023-03-14T02:17:23.250Z,3.57
2023-03-14T02:21:47.207Z,3.93
2023-03-14T02:26:03.986Z,4.13
2023-03-14T02:30:20.628Z,3.57
2023-03-14T02:34:43.736Z,4.03
2023-03-14T02:39:00.972Z,4.23
2023-03-14T02:43:10.036Z,3.67
2023-03-14T02:47:25.373Z,3.70
2023-03-14T02:51:35.521Z,3.73
2023-03-14T02:55:49.324Z,3.87
2023-03-14T03:00:02.811Z,3.67
2023-03-14T03:04:13.407Z,3.03
2023-03-14T03:08:23.431Z,2.53
2023-03-14T03:12:32.552Z,2.67
2023-03-14T03:16:41.878Z,3.43
2023-03-14T03:20:52.716Z,3.10
2023-03-14T03:25:01.994Z,3.27
2023-03-14T03:29:11.265Z,2.93
2023-03-14T03:33:20.520Z,3.90
2023-03-14T03:37:33.461Z,3.07
2023-03-14T03:41:42.731Z,4.20
2023-03-14T03:45:51.886Z,4.13
2023-03-14T03:50:01.246Z,3.93
2023-03-14T03:54:11.911Z,4.50
2023-03-14T03:58:21.234Z,3.50
2023-03-14T04:02:30.422Z,4.10
2023-03-14T04:06:40.638Z,4.10
2023-03-14T04:10:51.472Z,3.13
2023-03-14T04:15:00.821Z,3.70
2023-03-14T04:19:10.249Z,3.63
2023-03-14T04:23:19.501Z,3.23
2023-03-14T04:27:30.652Z,3.50
2023-03-14T04:31:39.874Z,2.93
2023-03-14T04:35:53.784Z,2.90
2023-03-14T04:40:05.943Z,3.30
2023-03-14T04:44:16.804Z,3.70
2023-03-14T04:48:26.334Z,3.50
2023-03-14T04:52:35.526Z,3.53
2023-03-14T04:56:44.728Z,2.67
2023-03-14T05:00:55.591Z,3.07
2023-03-14T05:05:05.057Z,3.50
2023-03-14T05:09:14.384Z,3.30
2023-03-14T05:13:23.648Z,3.57
2023-03-14T05:17:35.937Z,3.47
2023-03-14T05:21:45.167Z,2.97
2023-03-14T05:25:54.392Z,2.70
2023-03-14T05:30:04.088Z,2.73
2023-03-14T05:34:14.646Z,2.73
2023-03-14T05:38:24.018Z,3.30
2023-03-14T05:42:33.186Z,4.20
2023-03-14T05:46:42.691Z,3.43
2023-03-14T05:50:58.089Z,3.63
2023-03-14T05:55:08.450Z,4.83
2023-03-14T05:59:17.715Z,3.27
2023-03-14T06:03:27.163Z,2.67
2023-03-14T06:07:37.957Z,3.53
2023-03-14T06:11:47.840Z,4.27
2023-03-14T06:15:57.257Z,3.50
2023-03-14T06:20:06.910Z,4.27
2023-03-14T06:24:17.926Z,4.50
2023-03-14T06:28:27.336Z,4.17
2023-03-14T06:32:36.673Z,4.57
2023-03-14T06:36:45.724Z,3.13
2023-03-14T06:40:56.535Z,3.23
2023-03-14T06:45:06.091Z,2.80
2023-03-14T06:49:15.366Z,2.87
2023-03-14T06:53:24.705Z,2.40
2023-03-14T06:57:37.368Z,3.77
2023-03-14T07:01:46.956Z,3.00
2023-03-14T07:05:56.426Z,3.40
2023-03-14T07:10:06.023Z,4.07
2023-03-14T07:14:19.294Z,3.70
2023-03-14T07:18:32.185Z,3.27
2023-03-14T07:50:37.983Z,2.80
2023-03-14T07:55:04.462Z,2.90
2023-03-14T08:18:18.314Z,2.90
2023-03-14T08:26:51.793Z,2.93
2023-03-14T08:31:13.037Z,3.00
2023-03-14T08:35:28.151Z,2.93
2023-03-14T08:39:37.365Z,2.37
2023-03-14T08:43:48.533Z,3.43
2023-03-14T08:47:57.986Z,2.93
2023-03-14T08:52:08.357Z,2.93
2023-03-14T08:56:18.192Z,3.30
2023-03-14T09:00:29.100Z,2.70
2023-03-14T09:04:38.529Z,2.83
